createdAt,value
2019-03-13T00:00:06.006Z,8.75
2019-03-13T00:01:05.039Z,8.75
2019-03-13T00:02:05.366Z,8.75
2019-03-13T00:03:05.520Z,8.75
2019-03-13T00:04:05.989Z,8.69
2019-03-13T00:05:05.853Z,8.69
2019-03-13T00:06:05.201Z,8.69
2019-03-13T00:07:05.447Z,8.62
2019-03-13T00:08:05.922Z,8.69
2019-03-13T00:09:05.130Z,8.62
2019-03-13T00:10:05.574Z,8.62
2019-03-13T00:11:05.028Z,8.62
2019-03-13T00:12:05.122Z,8.62
2019-03-13T00:13:05.423Z,8.56
2019-03-13T00:14:05.042Z,8.56
2019-03-13T00:15:05.347Z,8.56
2019-03-13T00:16:05.691Z,8.62
2019-03-13T00:17:05.666Z,8.62
2019-03-13T00:18:05.209Z,8.62
2019-03-13T00:19:05.280Z,8.56
2019-03-13T00:20:05.622Z,8.62
2019-03-13T00:21:05.516Z,8.62
2019-03-13T00:22:05.520Z,8.69
2019-03-13T00:23:05.957Z,8.69
2019-03-13T00:24:05.137Z,8.69
2019-03-13T00:25:05.115Z,8.69
2019-03-13T00:26:05.202Z,8.69
2019-03-13T00:27:06.005Z,8.69
2019-03-13T00:28:05.303Z,8.75
2019-03-13T00:29:05.355Z,8.81
2019-03-13T00:30:05.446Z,8.81
2019-03-13T00:31:05.934Z,8.88
2019-03-13T00:32:05.206Z,8.88
2019-03-13T00:33:05.282Z,8.88
2019-03-13T00:34:05.762Z,8.88
2019-03-13T00:35:05.907Z,8.88
2019-03-13T00:36:05.132Z,8.88
2019-03-13T00:37:05.687Z,8.88
2019-03-13T00:38:06.029Z,8.88
2019-03-13T00:39:06.019Z,8.88
2019-03-13T00:40:05.381Z,8.81
2019-03-13T00:41:05.437Z,8.81
2019-03-13T00:42:05.615Z,8.75
2019-03-13T00:43:05.925Z,8.75
2019-03-13T00:44:05.532Z,8.75
2019-03-13T00:45:05.852Z,8.75
2019-03-13T00:46:05.220Z,8.69
2019-03-13T00:47:05.199Z,8.75
2019-03-13T00:48:05.445Z,8.75
2019-03-13T00:49:05.602Z,8.75
2019-03-13T00:50:05.861Z,8.75
2019-03-13T00:51:05.840Z,8.75
2019-03-13T00:52:06.016Z,8.75
2019-03-13T00:53:05.188Z,8.75
2019-03-13T00:54:05.702Z,8.88
2019-03-13T00:55:05.766Z,8.88
2019-03-13T00:56:05.798Z,8.75
2019-03-13T00:57:05.262Z,8.69
2019-03-13T00:58:05.435Z,8.69
2019-03-13T00:59:06.001Z,8.75
2019-03-13T01:00:05.363Z,8.69
2019-03-13T01:01:05.780Z,8.69
2019-03-13T01:02:06.098Z,8.62
2019-03-13T01:03:05.187Z,8.69
2019-03-13T01:04:05.360Z,8.69
2019-03-13T01:05:05.110Z,8.69
2019-03-13T01:06:05.204Z,8.62
2019-03-13T01:07:05.273Z,8.69
2019-03-13T01:08:05.943Z,8.62
2019-03-13T01:09:06.005Z,8.69
2019-03-13T01:10:05.537Z,8.69
2019-03-13T01:11:05.912Z,8.69
2019-03-13T01:12:05.298Z,8.69
2019-03-13T01:13:05.998Z,8.62
2019-03-13T01:14:05.435Z,8.56
2019-03-13T01:15:05.130Z,8.56
2019-03-13T01:16:05.518Z,8.62
2019-03-13T01:17:05.980Z,8.62
2019-03-13T01:18:05.696Z,8.56
2019-03-13T01:19:05.941Z,8.56
2019-03-13T01:20:05.923Z,8.56
2019-03-13T01:21:05.437Z,8.56
2019-03-13T01:22:06.028Z,8.56
2019-03-13T01:23:05.982Z,8.56
2019-03-13T01:24:05.121Z,8.56
2019-03-13T01:25:05.459Z,8.50
2019-03-13T01:26:05.702Z,8.56
2019-03-13T01:27:05.671Z,8.50
2019-03-13T01:28:05.931Z,8.50
2019-03-13T01:29:05.143Z,8.50
2019-03-13T01:30:05.421Z,8.50
2019-03-13T01:31:05.852Z,8.69
2019-03-13T01:32:05.438Z,8.62
2019-03-13T01:33:05.505Z,8.62
2019-03-13T01:34:05.141Z,8.56
2019-03-13T01:35:05.734Z,8.56
2019-03-13T01:36:05.848Z,8.56
2019-03-13T01:37:05.208Z,8.56
2019-03-13T01:38:05.204Z,8.56
2019-03-13T01:39:06.659Z,8.50
2019-03-13T01:40:05.926Z,8.50
2019-03-13T01:41:05.616Z,8.50
2019-03-13T01:42:05.955Z,8.50
2019-03-13T01:43:05.934Z,8.44
2019-03-13T01:44:05.201Z,8.44
2019-03-13T01:45:05.924Z,8.44
2019-03-13T01:46:05.925Z,8.44
2019-03-13T01:47:05.362Z,8.38
2019-03-13T01:48:05.746Z,8.44
2019-03-13T01:49:05.927Z,8.38
2019-03-13T01:50:05.198Z,8.38
2019-03-13T01:51:05.688Z,8.38
2019-03-13T01:52:05.755Z,8.38
2019-03-13T01:53:05.050Z,8.38
2019-03-13T01:54:05.541Z,8.38
2019-03-13T01:55:05.611Z,8.31
2019-03-13T01:56:06.093Z,8.31
2019-03-13T01:57:05.451Z,8.31
2019-03-13T01:58:05.208Z,8.25
2019-03-13T01:59:05.284Z,8.25
2019-03-13T02:00:05.622Z,8.25
2019-03-13T02:01:05.773Z,8.25
2019-03-13T02:02:06.027Z,8.19
2019-03-13T02:03:05.128Z,8.50
2019-03-13T02:04:05.454Z,8.62
2019-03-13T02:05:05.519Z,8.50
2019-03-13T02:06:05.607Z,8.44
2019-03-13T02:07:05.125Z,8.38
2019-03-13T02:08:05.694Z,8.31
2019-03-13T02:09:05.697Z,8.25
2019-03-13T02:10:06.017Z,8.19
2019-03-13T02:11:05.502Z,8.12
2019-03-13T02:12:05.211Z,8.12
2019-03-13T02:13:05.922Z,8.06
2019-03-13T02:14:05.139Z,8.06
2019-03-13T02:15:05.205Z,8.06
2019-03-13T02:16:06.241Z,8.00
2019-03-13T02:17:05.362Z,8.00
2019-03-13T02:18:05.613Z,8.00
2019-03-13T02:19:05.677Z,7.94
2019-03-13T02:20:05.365Z,7.94
2019-03-13T02:21:05.776Z,7.94
2019-03-13T02:22:05.930Z,7.88
2019-03-13T02:23:05.294Z,7.88
2019-03-13T02:24:05.457Z,7.88
2019-03-13T02:25:05.436Z,7.88
2019-03-13T02:26:05.602Z,7.88
2019-03-13T02:27:05.209Z,7.94
2019-03-13T02:28:05.538Z,7.94
2019-03-13T02:29:05.599Z,7.94
2019-03-13T02:30:05.887Z,7.94
2019-03-13T02:31:06.002Z,7.94
2019-03-13T02:32:05.526Z,7.94
2019-03-13T02:33:05.200Z,7.94
2019-03-13T02:34:05.609Z,7.94
2019-03-13T02:35:05.447Z,7.94
2019-03-13T02:36:05.130Z,7.94
2019-03-13T02:37:05.673Z,7.94
2019-03-13T02:38:05.845Z,7.94
2019-03-13T02:39:06.166Z,7.94
2019-03-13T02:40:05.446Z,7.94
2019-03-13T02:41:05.127Z,7.94
2019-03-13T02:42:05.392Z,7.94
2019-03-13T02:43:05.206Z,7.94
2019-03-13T02:44:06.026Z,7.88
2019-03-13T02:45:05.280Z,7.88
2019-03-13T02:46:05.610Z,7.88
2019-03-13T02:47:05.342Z,7.88
2019-03-13T02:48:05.874Z,7.81
2019-03-13T02:49:05.922Z,7.81
2019-03-13T02:50:05.453Z,7.81
2019-03-13T02:51:05.947Z,7.81
2019-03-13T02:52:05.866Z,7.81
2019-03-13T02:53:05.216Z,7.75
2019-03-13T02:54:05.636Z,7.75
2019-03-13T02:55:05.825Z,7.75
2019-03-13T02:56:05.848Z,7.75
2019-03-13T02:57:05.779Z,7.75
2019-03-13T02:58:05.839Z,7.75
2019-03-13T02:59:05.297Z,7.75
2019-03-13T03:00:05.363Z,7.75
2019-03-13T03:01:05.134Z,7.75
2019-03-13T03:02:05.710Z,7.75
2019-03-13T03:03:05.063Z,7.75
2019-03-13T03:04:05.224Z,7.75
2019-03-13T03:05:05.364Z,7.75
2019-03-13T03:06:05.528Z,7.75
2019-03-13T03:07:05.699Z,7.75
2019-03-13T03:08:05.761Z,7.75
2019-03-13T03:09:05.518Z,7.75
2019-03-13T03:10:05.535Z,7.69
2019-03-13T03:11:05.623Z,7.69
2019-03-13T03:12:05.296Z,7.69
2019-03-13T03:13:05.368Z,7.69
2019-03-13T03:14:05.929Z,7.69
2019-03-13T03:15:06.011Z,7.69
2019-03-13T03:16:05.938Z,7.69
2019-03-13T03:17:06.017Z,7.62
2019-03-13T03:18:05.194Z,7.62
2019-03-13T03:19:05.373Z,7.62
2019-03-13T03:20:05.860Z,7.56
2019-03-13T03:21:05.836Z,7.50
2019-03-13T03:22:05.541Z,7.44
2019-03-13T03:23:05.697Z,7.44
2019-03-13T03:24:05.789Z,7.44
2019-03-13T03:25:05.766Z,7.44
2019-03-13T03:26:05.765Z,7.44
2019-03-13T03:27:05.844Z,7.44
2019-03-13T03:28:06.002Z,7.44
2019-03-13T03:29:05.518Z,7.44
2019-03-13T03:30:06.007Z,7.44
2019-03-13T03:31:05.776Z,7.44
2019-03-13T03:32:05.996Z,7.44
2019-03-13T03:33:05.508Z,7.44
2019-03-13T03:34:05.707Z,7.44
2019-03-13T03:35:06.022Z,7.38
2019-03-13T03:36:05.214Z,7.44
2019-03-13T03:37:05.780Z,7.38
2019-03-13T03:38:05.889Z,7.44
2019-03-13T03:39:05.049Z,7.38
2019-03-13T03:40:05.686Z,7.38
2019-03-13T03:41:06.003Z,7.38
2019-03-13T03:42:05.231Z,7.38
2019-03-13T03:43:05.810Z,7.38
2019-03-13T03:44:05.202Z,7.38
2019-03-13T03:45:05.843Z,7.38
2019-03-13T03:46:05.292Z,7.38
2019-03-13T03:47:05.345Z,7.38
2019-03-13T03:48:05.129Z,7.44
2019-03-13T03:49:05.841Z,7.44
2019-03-13T03:50:05.139Z,7.44
2019-03-13T03:51:05.602Z,7.44
2019-03-13T03:52:05.675Z,7.44
2019-03-13T03:53:05.953Z,7.44
2019-03-13T03:54:05.321Z,7.44
2019-03-13T03:55:05.592Z,7.38
2019-03-13T03:56:05.765Z,7.38
2019-03-13T03:57:05.215Z,7.38
2019-03-13T03:58:05.539Z,7.38
2019-03-13T03:59:05.607Z,7.38
2019-03-13T04:00:05.777Z,7.38
2019-03-13T04:01:05.430Z,7.38
2019-03-13T04:02:05.693Z,7.38
2019-03-13T04:03:06.003Z,7.38
2019-03-13T04:04:05.368Z,7.31
2019-03-13T04:05:05.556Z,7.31
2019-03-13T04:06:06.034Z,7.31
2019-03-13T04:07:06.008Z,7.25
2019-03-13T04:08:05.846Z,7.25
2019-03-13T04:09:06.000Z,7.25
2019-03-13T04:10:05.622Z,7.25
2019-03-13T04:11:05.994Z,7.25
2019-03-13T04:12:05.217Z,7.25
2019-03-13T04:13:05.287Z,7.25
2019-03-13T04:14:05.469Z,7.19
2019-03-13T04:15:05.140Z,7.19
2019-03-13T04:16:05.430Z,7.19
2019-03-13T04:17:05.115Z,7.12
2019-03-13T04:18:05.214Z,7.12
2019-03-13T04:19:05.439Z,7.12
2019-03-13T04:20:05.766Z,7.12
2019-03-13T04:21:05.342Z,7.06
2019-03-13T04:22:05.040Z,7.06
2019-03-13T04:23:05.846Z,7.00
2019-03-13T04:24:05.905Z,7.12
2019-03-13T04:25:05.273Z,7.06
2019-03-13T04:26:05.919Z,7.00
2019-03-13T04:27:05.559Z,7.00
2019-03-13T04:28:05.121Z,6.94
2019-03-13T04:29:05.215Z,6.88
2019-03-13T04:30:05.286Z,6.88
2019-03-13T04:31:05.861Z,6.81
2019-03-13T04:32:05.945Z,6.81
2019-03-13T04:33:06.068Z,6.81
2019-03-13T04:34:05.538Z,6.81
2019-03-13T04:35:05.667Z,6.75
2019-03-13T04:36:05.367Z,6.75
2019-03-13T04:37:05.997Z,6.75
2019-03-13T04:38:05.603Z,6.69
2019-03-13T04:39:05.909Z,6.69
2019-03-13T04:40:06.006Z,6.69
2019-03-13T04:41:05.121Z,6.69
2019-03-13T04:42:05.448Z,6.69
2019-03-13T04:43:05.614Z,6.62
2019-03-13T04:44:05.821Z,6.62
2019-03-13T04:45:05.455Z,6.56
2019-03-13T04:46:05.684Z,6.56
2019-03-13T04:47:05.138Z,6.62
2019-03-13T04:48:05.460Z,6.69
2019-03-13T04:49:05.523Z,6.75
2019-03-13T04:50:05.792Z,6.81
2019-03-13T04:51:05.861Z,6.88
2019-03-13T04:52:05.606Z,6.88
2019-03-13T04:53:05.265Z,6.94
2019-03-13T04:54:06.009Z,7.00
2019-03-13T04:55:05.434Z,7.12
2019-03-13T04:56:05.698Z,7.19
2019-03-13T04:57:06.000Z,7.12
2019-03-13T04:58:05.674Z,7.25
2019-03-13T04:59:05.129Z,7.56
2019-03-13T05:00:05.312Z,7.69
2019-03-13T05:01:05.187Z,7.50
2019-03-13T05:02:05.459Z,7.31
2019-03-13T05:03:05.912Z,7.25
2019-03-13T05:04:05.539Z,7.25
2019-03-13T05:05:05.997Z,7.19
2019-03-13T05:06:05.167Z,7.12
2019-03-13T05:07:05.577Z,7.00
2019-03-13T05:08:05.848Z,7.00
2019-03-13T05:09:05.687Z,7.00
2019-03-13T05:10:05.776Z,6.94
2019-03-13T05:11:05.828Z,6.88
2019-03-13T05:12:05.457Z,6.88
2019-03-13T05:13:05.763Z,6.81
2019-03-13T05:14:05.444Z,6.75
2019-03-13T05:15:05.687Z,6.75
2019-03-13T05:16:05.275Z,6.69
2019-03-13T05:17:05.615Z,6.62
2019-03-13T05:18:06.106Z,6.62
2019-03-13T05:19:05.610Z,6.56
2019-03-13T05:20:05.511Z,6.56
2019-03-13T05:21:05.764Z,6.56
2019-03-13T05:22:06.014Z,6.50
2019-03-13T05:23:05.541Z,6.50
2019-03-13T05:24:05.522Z,6.38
2019-03-13T05:25:06.164Z,6.25
2019-03-13T05:26:06.086Z,6.06
2019-03-13T05:27:06.101Z,5.94
2019-03-13T05:28:05.782Z,5.81
2019-03-13T05:29:05.766Z,5.69
2019-03-13T05:30:05.516Z,5.56
2019-03-13T05:31:05.724Z,5.44
2019-03-13T05:32:05.690Z,5.31
2019-03-13T05:33:05.920Z,5.25
2019-03-13T05:34:05.369Z,5.19
2019-03-13T05:35:05.853Z,5.12
2019-03-13T05:36:05.857Z,5.12
2019-03-13T05:37:05.993Z,5.19
2019-03-13T05:38:05.353Z,5.12
2019-03-13T05:39:05.839Z,5.06
2019-03-13T05:40:05.533Z,4.94
2019-03-13T05:41:05.962Z,4.88
2019-03-13T05:42:06.096Z,5.00
2019-03-13T05:43:05.543Z,4.88
2019-03-13T05:44:05.833Z,4.88
2019-03-13T05:45:08.312Z,4.81
2019-03-13T05:46:05.917Z,4.75
2019-03-13T05:47:05.792Z,4.75
2019-03-13T05:48:05.147Z,4.81
2019-03-13T05:49:05.624Z,4.81
2019-03-13T05:50:05.023Z,4.75
2019-03-13T05:51:05.690Z,4.81
2019-03-13T05:52:05.771Z,5.00
2019-03-13T05:53:05.125Z,5.56
2019-03-13T05:54:05.540Z,5.62
2019-03-13T05:55:05.299Z,5.69
2019-03-13T05:56:05.844Z,5.62
2019-03-13T05:57:05.514Z,5.50
2019-03-13T05:58:05.757Z,5.31
2019-03-13T05:59:05.367Z,5.25
2019-03-13T06:00:06.007Z,5.19
2019-03-13T06:01:05.316Z,5.19
2019-03-13T06:02:05.594Z,5.31
2019-03-13T06:03:05.231Z,5.25
2019-03-13T06:04:06.001Z,5.31
2019-03-13T06:05:05.219Z,5.31
2019-03-13T06:06:05.272Z,5.44
2019-03-13T06:07:05.536Z,5.56
2019-03-13T06:08:06.075Z,5.62
2019-03-13T06:09:05.470Z,6.06
2019-03-13T06:10:05.857Z,6.38
2019-03-13T06:11:06.007Z,6.44
2019-03-13T06:12:05.529Z,6.38
2019-03-13T06:13:05.031Z,6.31
2019-03-13T06:14:05.403Z,6.25
2019-03-13T06:15:05.536Z,6.31
2019-03-13T06:16:05.195Z,6.31
2019-03-13T06:17:05.926Z,6.38
2019-03-13T06:18:05.102Z,6.38
2019-03-13T06:19:05.449Z,6.50
2019-03-13T06:20:05.119Z,6.50
2019-03-13T06:21:05.287Z,6.62
2019-03-13T06:22:05.671Z,6.75
2019-03-13T06:23:05.932Z,6.88
2019-03-13T06:24:06.009Z,7.00
2019-03-13T06:25:05.366Z,7.19
2019-03-13T06:26:05.135Z,7.38
2019-03-13T06:27:05.687Z,7.56
2019-03-13T06:28:06.101Z,7.56
2019-03-13T06:29:05.128Z,7.75
2019-03-13T06:30:05.752Z,7.94
2019-03-13T06:31:05.846Z,8.19
2019-03-13T06:32:06.092Z,8.31
2019-03-13T06:33:05.373Z,8.38
2019-03-13T06:34:05.605Z,8.44
2019-03-13T06:35:05.475Z,8.56
2019-03-13T06:36:05.304Z,8.75
2019-03-13T06:37:05.460Z,8.88
2019-03-13T06:38:05.208Z,8.94
2019-03-13T06:39:05.231Z,8.94
2019-03-13T06:40:05.163Z,8.88
2019-03-13T06:41:05.551Z,9.00
2019-03-13T06:42:05.056Z,9.12
2019-03-13T06:43:05.525Z,9.25
2019-03-13T06:44:05.952Z,9.38
2019-03-13T06:45:05.131Z,9.50
2019-03-13T06:46:05.678Z,9.38
2019-03-13T06:47:05.529Z,9.31
2019-03-13T06:48:06.012Z,9.38
2019-03-13T06:49:05.397Z,9.25
2019-03-13T06:50:06.010Z,9.38
2019-03-13T06:51:05.135Z,9.44
2019-03-13T06:52:05.611Z,9.44
2019-03-13T06:53:05.690Z,9.38
2019-03-13T06:54:05.454Z,9.38
2019-03-13T06:55:05.714Z,9.44
2019-03-13T06:56:05.768Z,9.38
2019-03-13T06:57:05.467Z,9.25
2019-03-13T06:58:05.057Z,9.12
2019-03-13T06:59:06.929Z,9.12
2019-03-13T07:00:05.441Z,9.12
2019-03-13T07:01:05.311Z,9.19
2019-03-13T07:02:05.279Z,9.12
2019-03-13T07:03:06.267Z,9.12
2019-03-13T07:04:05.442Z,9.06
2019-03-13T07:05:05.933Z,9.06
2019-03-13T07:06:05.676Z,9.06
2019-03-13T07:07:05.850Z,9.19
2019-03-13T07:08:05.141Z,9.25
2019-03-13T07:09:05.370Z,9.31
2019-03-13T07:10:05.418Z,9.31
2019-03-13T07:11:05.683Z,9.38
2019-03-13T07:12:05.914Z,9.38
2019-03-13T07:13:05.774Z,9.50
2019-03-13T07:14:06.097Z,9.56
2019-03-13T07:15:05.055Z,9.69
2019-03-13T07:16:05.777Z,9.75
2019-03-13T07:17:05.861Z,9.88
2019-03-13T07:18:05.612Z,10.00
2019-03-13T07:19:05.850Z,10.12
2019-03-13T07:20:05.206Z,10.25
2019-03-13T07:21:05.943Z,10.31
2019-03-13T07:22:06.183Z,10.31
2019-03-13T07:23:05.208Z,10.25
2019-03-13T07:24:05.309Z,10.25
2019-03-13T07:25:05.277Z,10.25
2019-03-13T07:26:05.504Z,10.19
2019-03-13T07:27:06.106Z,10.12
2019-03-13T07:28:05.237Z,10.12
2019-03-13T07:29:11.817Z,10.00
2019-03-13T07:30:05.213Z,9.94
2019-03-13T07:31:05.284Z,9.81
2019-03-13T07:32:05.517Z,9.75
2019-03-13T07:33:05.867Z,9.69
2019-03-13T07:34:05.351Z,9.69
2019-03-13T07:35:05.952Z,9.62
2019-03-13T07:36:05.913Z,9.56
2019-03-13T07:37:05.464Z,9.44
2019-03-13T07:38:06.003Z,9.38
2019-03-13T07:39:05.464Z,9.44
2019-03-13T07:40:05.535Z,9.44
2019-03-13T07:41:05.040Z,9.44
2019-03-13T07:42:06.000Z,9.38
2019-03-13T07:43:05.456Z,9.44
2019-03-13T07:44:06.099Z,9.44
2019-03-13T07:45:05.070Z,9.44
2019-03-13T07:46:05.447Z,9.50
2019-03-13T07:47:05.307Z,9.44
2019-03-13T07:48:05.372Z,9.50
2019-03-13T07:49:05.616Z,9.50
2019-03-13T07:50:05.145Z,9.62
2019-03-13T07:51:05.859Z,9.81
2019-03-13T07:52:05.295Z,10.00
2019-03-13T07:53:05.525Z,10.06
2019-03-13T07:54:06.001Z,10.25
2019-03-13T07:55:05.793Z,10.31
2019-03-13T07:56:05.928Z,10.38
2019-03-13T07:57:05.148Z,10.50
2019-03-13T07:58:05.856Z,10.56
2019-03-13T07:59:05.386Z,10.69
2019-03-13T08:00:05.848Z,10.50
2019-03-13T08:01:05.859Z,10.38
2019-03-13T08:02:06.092Z,10.25
2019-03-13T08:03:05.549Z,10.06
2019-03-13T08:04:05.680Z,9.94
2019-03-13T08:05:05.288Z,9.81
2019-03-13T08:06:05.749Z,9.69
2019-03-13T08:07:05.531Z,9.56
2019-03-13T08:08:06.167Z,9.50
2019-03-13T08:09:05.123Z,9.38
2019-03-13T08:10:05.373Z,9.25
2019-03-13T08:11:05.861Z,9.19
2019-03-13T08:12:06.095Z,9.12
2019-03-13T08:13:05.059Z,9.00
2019-03-13T08:14:06.022Z,8.94
2019-03-13T08:15:05.457Z,8.81
2019-03-13T08:16:05.523Z,8.75
2019-03-13T08:17:05.612Z,8.69
2019-03-13T08:18:05.210Z,8.69
2019-03-13T08:19:05.275Z,8.62
2019-03-13T08:20:05.613Z,8.56
2019-03-13T08:21:05.861Z,8.50
2019-03-13T08:22:06.016Z,8.44
2019-03-13T08:23:05.287Z,8.38
2019-03-13T08:24:05.446Z,8.38
2019-03-13T08:25:07.961Z,8.31
2019-03-13T08:26:05.835Z,8.25
2019-03-13T08:27:05.926Z,8.19
2019-03-13T08:28:05.452Z,8.19
2019-03-13T08:29:05.531Z,8.12
2019-03-13T08:30:05.528Z,8.12
2019-03-13T08:31:05.865Z,8.06
2019-03-13T08:32:06.012Z,8.06
2019-03-13T08:33:05.478Z,8.00
2019-03-13T08:34:06.025Z,8.06
2019-03-13T08:35:05.296Z,8.19
2019-03-13T08:36:06.170Z,8.19
2019-03-13T08:37:05.556Z,8.19
2019-03-13T08:38:05.523Z,8.19
2019-03-13T08:39:05.685Z,8.19
2019-03-13T08:40:06.011Z,8.12
2019-03-13T08:41:05.135Z,8.12
2019-03-13T08:42:05.190Z,8.06
2019-03-13T08:43:05.447Z,8.06
2019-03-13T08:44:05.690Z,8.06
2019-03-13T08:45:05.591Z,8.00
2019-03-13T08:46:06.000Z,8.00
2019-03-13T08:47:06.083Z,8.00
2019-03-13T08:48:05.531Z,7.94
2019-03-13T08:49:05.625Z,7.94
2019-03-13T08:50:05.700Z,7.94
2019-03-13T08:51:05.464Z,7.88
2019-03-13T08:52:05.524Z,7.88
2019-03-13T08:53:06.029Z,7.88
2019-03-13T08:54:05.528Z,7.81
2019-03-13T08:55:06.001Z,7.81
2019-03-13T08:56:05.124Z,7.81
2019-03-13T08:57:05.447Z,7.81
2019-03-13T08:58:05.608Z,7.81
2019-03-13T08:59:05.681Z,7.75
2019-03-13T09:00:05.875Z,7.75
2019-03-13T09:01:05.192Z,7.75
2019-03-13T09:02:05.679Z,7.75
2019-03-13T09:03:05.127Z,7.75
2019-03-13T09:04:05.462Z,7.69
2019-03-13T09:05:05.788Z,7.69
2019-03-13T09:06:05.775Z,7.69
2019-03-13T09:07:05.374Z,7.69
2019-03-13T09:08:05.529Z,7.69
2019-03-13T09:09:05.948Z,7.75
2019-03-13T09:10:06.003Z,7.75
2019-03-13T09:11:05.229Z,7.75
2019-03-13T09:12:05.285Z,7.81
2019-03-13T09:13:05.536Z,7.81
2019-03-13T09:14:05.606Z,7.81
2019-03-13T09:15:05.762Z,7.88
2019-03-13T09:16:05.401Z,7.88
2019-03-13T09:17:05.397Z,7.94
2019-03-13T09:18:05.926Z,7.94
2019-03-13T09:19:05.229Z,7.94
2019-03-13T09:20:05.368Z,8.00
2019-03-13T09:21:05.924Z,8.00
2019-03-13T09:22:05.220Z,8.06
2019-03-13T09:23:05.288Z,8.06
2019-03-13T09:24:05.772Z,8.12
2019-03-13T09:25:11.488Z,8.12
2019-03-13T09:26:05.157Z,8.19
2019-03-13T09:27:05.387Z,8.19
2019-03-13T09:28:05.792Z,8.25
2019-03-13T09:29:05.133Z,8.25
2019-03-13T09:30:05.222Z,8.25
2019-03-13T09:31:05.606Z,8.31
2019-03-13T09:32:05.531Z,8.31
2019-03-13T09:33:05.941Z,8.31
2019-03-13T09:34:05.352Z,8.38
2019-03-13T09:35:05.523Z,8.38
2019-03-13T09:36:05.841Z,8.38
2019-03-13T09:37:05.939Z,8.31
2019-03-13T09:38:05.114Z,8.38
2019-03-13T09:39:05.538Z,8.38
2019-03-13T09:40:05.999Z,8.38
2019-03-13T09:41:05.611Z,8.44
2019-03-13T09:42:05.670Z,8.44
2019-03-13T09:43:06.009Z,8.50
2019-03-13T09:44:05.105Z,8.50
2019-03-13T09:45:05.698Z,8.50
2019-03-13T09:46:06.101Z,8.50
2019-03-13T09:47:05.217Z,8.50
2019-03-13T09:48:05.447Z,8.44
2019-03-13T09:49:05.842Z,8.44
2019-03-13T09:50:05.531Z,8.44
2019-03-13T09:51:05.622Z,8.50
2019-03-13T09:52:05.693Z,8.50
2019-03-13T09:53:05.764Z,8.50
2019-03-13T09:54:05.622Z,8.50
2019-03-13T09:55:05.382Z,8.50
2019-03-13T09:56:05.535Z,8.50
2019-03-13T09:57:05.645Z,8.50
2019-03-13T09:58:06.093Z,8.50
2019-03-13T09:59:06.021Z,8.50
2019-03-13T10:00:05.056Z,8.50
2019-03-13T10:01:05.446Z,8.44
2019-03-13T10:02:05.617Z,8.44
2019-03-13T10:03:05.691Z,8.38
2019-03-13T10:04:05.751Z,8.38
2019-03-13T10:05:05.449Z,8.31
2019-03-13T10:06:05.519Z,8.25
2019-03-13T10:07:05.782Z,8.19
2019-03-13T10:08:06.011Z,8.19
2019-03-13T10:09:05.372Z,8.19
2019-03-13T10:10:05.784Z,8.19
2019-03-13T10:11:05.209Z,8.19
2019-03-13T10:12:05.371Z,8.19
2019-03-13T10:13:06.031Z,8.19
2019-03-13T10:14:06.008Z,8.19
2019-03-13T10:15:05.291Z,8.19
2019-03-13T10:16:05.441Z,8.19
2019-03-13T10:17:10.856Z,8.19
2019-03-13T10:18:05.763Z,8.19
2019-03-13T10:19:05.957Z,8.19
2019-03-13T10:20:06.085Z,8.25
2019-03-13T10:21:05.515Z,8.25
2019-03-13T10:22:05.857Z,8.31
2019-03-13T10:23:05.375Z,8.31
2019-03-13T10:24:05.524Z,8.31
2019-03-13T10:25:05.673Z,8.31
2019-03-13T10:26:05.839Z,8.31
2019-03-13T10:27:05.488Z,8.31
2019-03-13T10:28:05.611Z,8.31
2019-03-13T10:29:05.611Z,8.38
2019-03-13T10:30:05.293Z,8.38
2019-03-13T10:31:05.555Z,8.38
2019-03-13T10:32:05.475Z,8.38
2019-03-13T10:33:05.890Z,8.38
2019-03-13T10:34:05.109Z,8.38
2019-03-13T10:35:05.687Z,8.38
2019-03-13T10:36:05.770Z,8.38
2019-03-13T10:37:05.221Z,8.38
2019-03-13T10:38:13.547Z,8.38
2019-03-13T10:39:05.855Z,8.31
2019-03-13T10:40:05.373Z,8.31
2019-03-13T10:41:06.009Z,8.25
2019-03-13T10:42:05.627Z,8.25
2019-03-13T10:43:05.854Z,8.25
2019-03-13T10:44:06.072Z,8.31
2019-03-13T10:45:05.127Z,8.31
2019-03-13T10:46:05.362Z,8.25
2019-03-13T10:47:05.510Z,8.25
2019-03-13T10:48:05.122Z,8.31
2019-03-13T10:49:05.207Z,8.31
2019-03-13T10:50:05.951Z,8.31
2019-03-13T10:51:05.130Z,8.31
2019-03-13T10:52:05.306Z,8.38
2019-03-13T10:53:05.791Z,8.38
2019-03-13T10:54:05.927Z,8.38
2019-03-13T10:55:05.205Z,8.38
2019-03-13T10:56:05.514Z,8.44
2019-03-13T10:57:06.110Z,8.44
2019-03-13T10:58:05.287Z,8.44
2019-03-13T10:59:05.305Z,8.44
2019-03-13T11:00:05.510Z,8.50
2019-03-13T11:01:05.872Z,8.50
2019-03-13T11:02:06.099Z,8.50
2019-03-13T11:03:05.200Z,8.50
2019-03-13T11:04:05.464Z,8.50
2019-03-13T11:05:05.613Z,8.56
2019-03-13T11:06:05.693Z,8.56
2019-03-13T11:07:05.132Z,8.56
2019-03-13T11:08:05.455Z,8.56
2019-03-13T11:09:05.860Z,8.56
2019-03-13T11:10:05.303Z,8.56
2019-03-13T11:11:05.696Z,8.56
2019-03-13T11:12:06.107Z,8.56
2019-03-13T11:13:05.200Z,8.56
2019-03-13T11:14:14.707Z,8.56
2019-03-13T11:15:05.463Z,8.50
2019-03-13T11:16:05.606Z,8.50
2019-03-13T11:17:05.125Z,8.50
2019-03-13T11:18:05.384Z,8.50
2019-03-13T11:19:05.527Z,8.50
2019-03-13T11:20:06.077Z,8.50
2019-03-13T11:21:05.233Z,8.50
2019-03-13T11:22:05.855Z,8.50
2019-03-13T11:23:05.873Z,8.50
2019-03-13T11:24:05.913Z,8.56
2019-03-13T11:25:05.547Z,8.56
2019-03-13T11:26:05.605Z,8.56
2019-03-13T11:27:05.770Z,8.56
2019-03-13T11:28:06.013Z,8.56
2019-03-13T11:29:05.672Z,8.56
2019-03-13T11:30:06.006Z,8.56
2019-03-13T11:31:06.174Z,8.56
2019-03-13T11:32:05.613Z,8.56
2019-03-13T11:33:05.928Z,8.56
2019-03-13T11:34:05.064Z,8.50
2019-03-13T11:35:05.615Z,8.50
2019-03-13T11:36:05.135Z,8.50
2019-03-13T11:37:05.540Z,8.56
2019-03-13T11:38:05.680Z,8.56
2019-03-13T11:39:05.772Z,8.56
2019-03-13T11:40:05.857Z,8.56
2019-03-13T11:41:05.305Z,8.56
2019-03-13T11:42:05.464Z,8.56
2019-03-13T11:43:05.688Z,8.56
2019-03-13T11:44:05.282Z,8.56
2019-03-13T11:45:05.931Z,8.62
2019-03-13T11:46:05.453Z,8.69
2019-03-13T11:47:06.021Z,8.69
2019-03-13T11:48:05.917Z,8.69
2019-03-13T11:49:05.546Z,8.75
2019-03-13T11:50:05.613Z,8.75
2019-03-13T11:51:05.766Z,8.81
2019-03-13T11:52:05.358Z,8.81
2019-03-13T11:53:05.919Z,8.81
2019-03-13T11:54:05.112Z,8.81
2019-03-13T11:55:05.135Z,8.88
2019-03-13T11:56:05.439Z,8.94
2019-03-13T11:57:05.624Z,8.94
2019-03-13T11:58:05.197Z,8.94
2019-03-13T11:59:05.538Z,9.00
2019-03-13T12:00:05.622Z,9.00
2019-03-13T12:01:05.859Z,9.06
2019-03-13T12:02:05.928Z,9.06
2019-03-13T12:03:05.207Z,9.06
2019-03-13T12:04:05.351Z,9.06
2019-03-13T12:05:05.058Z,9.12
2019-03-13T12:06:05.200Z,9.19
2019-03-13T12:07:05.450Z,9.19
2019-03-13T12:08:05.841Z,9.25
2019-03-13T12:09:05.924Z,9.25
2019-03-13T12:10:05.079Z,9.25
2019-03-13T12:11:05.118Z,9.31
2019-03-13T12:12:05.709Z,9.31
2019-03-13T12:13:05.118Z,9.25
2019-03-13T12:14:05.382Z,9.25
2019-03-13T12:15:05.698Z,9.25
2019-03-13T12:16:05.757Z,9.25
2019-03-13T12:17:05.771Z,9.25
2019-03-13T12:18:05.851Z,9.25
2019-03-13T12:19:05.208Z,9.25
2019-03-13T12:20:05.300Z,9.25
2019-03-13T12:21:05.448Z,9.25
2019-03-13T12:22:05.920Z,9.31
2019-03-13T12:23:05.684Z,9.31
2019-03-13T12:24:05.196Z,9.31
2019-03-13T12:25:05.287Z,9.31
2019-03-13T12:26:05.367Z,9.38
2019-03-13T12:27:05.777Z,9.38
2019-03-13T12:28:05.689Z,9.44
2019-03-13T12:29:05.691Z,9.44
2019-03-13T12:30:05.845Z,9.50
2019-03-13T12:31:06.008Z,9.50
2019-03-13T12:32:05.521Z,9.50
2019-03-13T12:33:05.277Z,9.50
2019-03-13T12:34:05.690Z,9.50
2019-03-13T12:35:05.781Z,9.50
2019-03-13T12:36:05.830Z,9.50
2019-03-13T12:37:05.629Z,9.50
2019-03-13T12:38:05.833Z,9.50
2019-03-13T12:39:05.290Z,9.50
2019-03-13T12:40:05.435Z,9.56
2019-03-13T12:41:06.024Z,9.56
2019-03-13T12:42:05.994Z,9.56
2019-03-13T12:43:05.421Z,9.50
2019-03-13T12:44:05.933Z,9.56
2019-03-13T12:45:05.215Z,9.56
2019-03-13T12:46:05.690Z,9.56
2019-03-13T12:47:05.672Z,9.62
2019-03-13T12:48:16.031Z,9.62
2019-03-13T12:49:05.514Z,9.62
2019-03-13T12:50:06.030Z,9.62
2019-03-13T12:51:05.143Z,9.62
2019-03-13T12:52:05.213Z,9.62
2019-03-13T12:53:05.287Z,9.62
2019-03-13T12:54:05.963Z,9.62
2019-03-13T12:55:06.000Z,9.56
2019-03-13T12:56:05.538Z,9.56
2019-03-13T12:57:05.524Z,9.56
2019-03-13T12:58:05.067Z,9.50
2019-03-13T12:59:05.707Z,9.50
2019-03-13T13:00:05.777Z,9.50
2019-03-13T13:01:05.363Z,9.50
2019-03-13T13:02:05.366Z,9.50
2019-03-13T13:03:06.106Z,9.50
2019-03-13T13:04:05.134Z,9.50
2019-03-13T13:05:05.530Z,9.50
2019-03-13T13:06:05.675Z,9.50
2019-03-13T13:07:06.000Z,9.56
2019-03-13T13:08:05.707Z,9.56
2019-03-13T13:09:05.352Z,9.62
2019-03-13T13:10:05.946Z,9.62
2019-03-13T13:11:05.124Z,9.62
2019-03-13T13:12:05.288Z,9.69
2019-03-13T13:13:05.754Z,9.69
2019-03-13T13:14:05.292Z,9.69
2019-03-13T13:15:05.612Z,9.69
2019-03-13T13:16:05.049Z,9.69
2019-03-13T13:17:05.821Z,9.69